Pyxis Delta — V7TP8 — position and weather

sailwx.info

Track history (hours):
 
Tides and Currents Weather Stations Pressure Air Temp Water Temp Dewpoint Dewpoint Depression Visibility Wind Speed Wind Dir Waves Ship Positions

Pyxis Delta

Last reported at 2018-Jul-20 08:00 UTC. Time now 2018-Jul-20 08:22 UTC.
Position N 37°16' E 005°34'.

Length 183 m; draft 12.1 m.

Type: Tanker. MMSI: 538003855.

Date/timePositionNaut miles runAvg speedWind from/ knotsBaromVisibWave heightAir tempDewpointWater temp
2018-Jul-20 08:00N 37°16' E 005°34'3713.1
2018-Jul-20 05:12N 37°11' E 004°48'314.1
2018-Jul-20 05:00N 37°11' E 004°45'714.1
2018-Jul-20 04:30N 37°10' E 004°36'714.0
2018-Jul-20 04:00N 37°09' E 004°27'713.9
2018-Jul-20 03:30N 37°08' E 004°19'813.9
2018-Jul-20 02:57N 37°06' E 004°09'1513.0
2018-Jul-20 01:47N 37°04' E 003°50'413.0
2018-Jul-20 01:30N 37°03' E 003°46'712.9
2018-Jul-20 00:58N 37°03' E 003°37'612.8
2018-Jul-20 00:30N 37°02' E 003°30'612.8
2018-Jul-20 00:00N 37°01' E 003°22'612.9
2018-Jul-19 23:31N 37°00' E 003°14'713.4
2018-Jul-19 23:00N 36°59' E 003°06'713.6
2018-Jul-19 22:30N 36°57' E 002°57'713.6
2018-Jul-19 21:59N 36°56' E 002°49'713.5
2018-Jul-19 21:30N 36°54' E 002°41'713.3
2018-Jul-19 21:00N 36°53' E 002°33'713.8
2018-Jul-19 20:30N 36°53' E 002°24'714.2
2018-Jul-19 20:00N 36°52' E 002°15'714.2
2018-Jul-19 19:29N 36°49' E 002°07'714.2
2018-Jul-19 19:00N 36°47' E 001°58'714.1
2018-Jul-19 18:30N 36°45' E 001°50'714.3
2018-Jul-19 18:00N 36°44' E 001°41'714.1
2018-Jul-19 17:30N 36°44' E 001°32'713.7
2018-Jul-19 17:00N 36°43' E 001°24'714.0
2018-Jul-19 16:30N 36°42' E 001°15'714.2
2018-Jul-19 15:59N 36°41' E 001°06'713.9
2018-Jul-19 15:30N 36°40' E 000°58'713.8
2018-Jul-19 15:00N 36°40' E 000°49'713.7
2018-Jul-19 14:30N 36°38' E 000°41'1413.7
2018-Jul-19 13:28N 36°37' E 000°23'614.2
2018-Jul-19 13:01N 36°36' E 000°15'714.3
2018-Jul-19 12:29N 36°34' E 000°06'1313.7
2018-Jul-19 11:32N 36°31' W 000°10'013.8
2018-Jul-19 11:30N 36°31' W 000°10'3013.3
2018-Jul-19 09:15N 36°25' W 000°47'1313.8
2018-Jul-19 08:20N 36°22' W 001°02'2814.2
2018-Jul-19 06:20N 36°17' W 001°36'514.3
2018-Jul-19 05:58N 36°16' W 001°43'  
2018-Jul-15 01:44N 40°48' W 029°03'  
Track history (hours):
 
Tides and Currents Weather Stations Pressure Air Temp Water Temp Dewpoint Dewpoint Depression Visibility Wind Speed Wind Dir Waves Ship Positions

Pyxis Delta

Last reported at 2018-Jul-20 08:00 UTC. Time now 2018-Jul-20 08:22 UTC.
Position N 37°16' E 005°34'.

Length 183 m; draft 12.1 m.

Type: Tanker. MMSI: 538003855.

Date/timePositionNaut miles runAvg speedWind from/ knotsBaromVisibWave heightAir tempDewpointWater temp
2018-Jul-20 08:00N 37°16' E 005°34'3713.1
2018-Jul-20 05:12N 37°11' E 004°48'314.1
2018-Jul-20 05:00N 37°11' E 004°45'714.1
2018-Jul-20 04:30N 37°10' E 004°36'714.0
2018-Jul-20 04:00N 37°09' E 004°27'713.9
2018-Jul-20 03:30N 37°08' E 004°19'813.9
2018-Jul-20 02:57N 37°06' E 004°09'1513.0
2018-Jul-20 01:47N 37°04' E 003°50'413.0
2018-Jul-20 01:30N 37°03' E 003°46'712.9
2018-Jul-20 00:58N 37°03' E 003°37'612.8
2018-Jul-20 00:30N 37°02' E 003°30'612.8
2018-Jul-20 00:00N 37°01' E 003°22'612.9
2018-Jul-19 23:31N 37°00' E 003°14'713.4
2018-Jul-19 23:00N 36°59' E 003°06'713.6
2018-Jul-19 22:30N 36°57' E 002°57'713.6
2018-Jul-19 21:59N 36°56' E 002°49'713.5
2018-Jul-19 21:30N 36°54' E 002°41'713.3
2018-Jul-19 21:00N 36°53' E 002°33'713.8
2018-Jul-19 20:30N 36°53' E 002°24'714.2
2018-Jul-19 20:00N 36°52' E 002°15'714.2
2018-Jul-19 19:29N 36°49' E 002°07'714.2
2018-Jul-19 19:00N 36°47' E 001°58'714.1
2018-Jul-19 18:30N 36°45' E 001°50'714.3
2018-Jul-19 18:00N 36°44' E 001°41'714.1
2018-Jul-19 17:30N 36°44' E 001°32'713.7
2018-Jul-19 17:00N 36°43' E 001°24'714.0
2018-Jul-19 16:30N 36°42' E 001°15'714.2
2018-Jul-19 15:59N 36°41' E 001°06'713.9
2018-Jul-19 15:30N 36°40' E 000°58'713.8
2018-Jul-19 15:00N 36°40' E 000°49'713.7
2018-Jul-19 14:30N 36°38' E 000°41'1413.7
2018-Jul-19 13:28N 36°37' E 000°23'614.2
2018-Jul-19 13:01N 36°36' E 000°15'714.3
2018-Jul-19 12:29N 36°34' E 000°06'1313.7
2018-Jul-19 11:32N 36°31' W 000°10'013.8
2018-Jul-19 11:30N 36°31' W 000°10'3013.3
2018-Jul-19 09:15N 36°25' W 000°47'1313.8
2018-Jul-19 08:20N 36°22' W 001°02'2814.2
2018-Jul-19 06:20N 36°17' W 001°36'514.3
2018-Jul-19 05:58N 36°16' W 001°43'  
2018-Jul-15 01:44N 40°48' W 029°03'  

Dump ship's entire track history